Overview Statistics Trail Chart Weather Telemetry Raw packets
 

This is the latest recevied weather packets stored in our database for station/object SV9TNF-55. If no packets are shown the sender has not sent any weather packets the latest 10 day(s).

<< 18 19 20 21 22 23 24 >>
Time Temp. Humidity Pressure Rain* Wind** Luminosity Snow
1788385665 21.11° C 23% 1015.2 hPa 0 mm 0.89 m/s, 270° - -
1788385064 20.56° C 25% 1015.3 hPa 0 mm 0.45 m/s, 292° - -
1788384464 19.44° C 27% 1015.2 hPa 0 mm 0.45 m/s, 292° - -
1788383864 19.44° C 27% 1015.2 hPa 0 mm 0.45 m/s, 292° - -
1788383264 19.44° C 30% 1015.2 hPa 0 mm 0.45 m/s, 292° - -
1788382663 19.44° C 31% 1015.3 hPa 0 mm 0.45 m/s, 292° - -
1788382064 19.44° C 34% 1015.4 hPa 0 mm 0.89 m/s, 292° - -
1788381463 19.44° C 35% 1015.1 hPa 0 mm 1.34 m/s, 292° - -
1788380863 18.89° C 36% 1015.2 hPa 0 mm 0.89 m/s, 315° - -
1788380263 19.44° C 36% 1015.3 hPa 0 mm 0.45 m/s, 292° - -
1788379663 18.89° C 37% 1015.4 hPa 0 mm 0.89 m/s, 292° - -
1788379063 18.89° C 37% 1015.4 hPa 0 mm 0.89 m/s, 292° - -
1788378463 19.44° C 38% 1015.4 hPa 0 mm 0.45 m/s, 292° - -
1788377862 19.44° C 38% 1015.4 hPa 0 mm 1.34 m/s, 292° - -
1788377263 20° C 38% 1015.3 hPa 0 mm 0.45 m/s, 292° - -
1788376662 20° C 38% 1015.3 hPa 0 mm 0.45 m/s, 292° - -
1788376062 22.22° C 36% 1015.2 hPa 0 mm 1.34 m/s, 270° - -
1788375462 22.22° C 36% 1015.2 hPa 0 mm 1.34 m/s, 270° - -
1788374862 21.11° C 38% 1014.9 hPa 0 mm 0.89 m/s, 292° - -
1788374262 20.56° C 40% 1014.8 hPa 0 mm 0.45 m/s, 315° - -
1788373662 20.56° C 41% 1014.8 hPa 0 mm 0.45 m/s, 292° - -
1788373062 20.56° C 44% 1014.8 hPa 0 mm 0 m/s - -
1788372462 21.67° C 41% 1014.6 hPa 0 mm 0.89 m/s, 292° - -
1788371861 21.67° C 38% 1014.6 hPa 0 mm 1.34 m/s, 292° - -
1788371261 21.11° C 41% 1014.6 hPa 0 mm 0.89 m/s, 270° - -

* Rain latest hour (hover to see other rain measurements)
** Current wind speed in m/s (hover to see current wind gust speed)